createdAt,value
2018-11-21T00:00:32.633Z,7.4
2018-11-21T00:01:33.799Z,7.3
2018-11-21T00:02:34.937Z,7.3
2018-11-21T00:03:36.214Z,7.2
2018-11-21T00:04:37.518Z,7.2
2018-11-21T00:05:38.789Z,7.3
2018-11-21T00:06:40.000Z,7.1
2018-11-21T00:07:41.267Z,7.1
2018-11-21T00:08:43.466Z,7
2018-11-21T00:09:44.981Z,7.1
2018-11-21T00:10:48.460Z,7.2
2018-11-21T00:11:49.674Z,7.1
2018-11-21T00:12:50.834Z,7.1
2018-11-21T00:13:52.017Z,6.9
2018-11-21T00:14:53.583Z,7
2018-11-21T00:15:54.774Z,7
2018-11-21T00:16:55.902Z,6.9
2018-11-21T00:17:58.341Z,7
2018-11-21T00:19:00.703Z,7
2018-11-21T00:20:00.702Z,7.1
2018-11-21T00:21:03.057Z,6.9
2018-11-21T00:22:04.288Z,6.8
2018-11-21T00:23:05.502Z,7
2018-11-21T00:24:07.146Z,6.9
2018-11-21T00:25:08.295Z,7
2018-11-21T00:26:09.490Z,7.1
2018-11-21T00:27:10.800Z,6.8
2018-11-21T00:28:16.981Z,7
2018-11-21T00:29:18.155Z,7.1
2018-11-21T00:30:19.294Z,7
2018-11-21T00:31:20.482Z,7.1
2018-11-21T00:32:21.632Z,7
2018-11-21T00:33:22.877Z,6.8
2018-11-21T00:34:24.042Z,6.9
2018-11-21T00:35:25.175Z,7.1
2018-11-21T00:36:26.574Z,6.8
2018-11-21T00:37:27.710Z,6.9
2018-11-21T00:38:28.873Z,7
2018-11-21T00:39:30.016Z,6.9
2018-11-21T00:40:31.154Z,7
2018-11-21T00:41:32.326Z,7
2018-11-21T00:42:33.549Z,6.9
2018-11-21T00:43:34.730Z,6.9
2018-11-21T00:44:35.857Z,6.8
2018-11-21T00:45:36.986Z,6.8
2018-11-21T00:46:38.165Z,6.8
2018-11-21T00:47:42.020Z,6.9
2018-11-21T00:48:43.338Z,6.7
2018-11-21T00:49:44.711Z,6.8
2018-11-21T00:50:45.842Z,6.9
2018-11-21T00:51:47.033Z,7
2018-11-21T00:52:48.381Z,6.9
2018-11-21T00:53:49.589Z,6.9
2018-11-21T00:54:50.766Z,6.9
2018-11-21T00:55:51.988Z,6.6
2018-11-21T00:56:54.176Z,6.5
2018-11-21T00:57:55.490Z,6.7
2018-11-21T00:59:01.681Z,6.8
2018-11-21T01:00:03.189Z,6.8
2018-11-21T01:01:04.356Z,6.7
2018-11-21T01:02:05.595Z,6.6
2018-11-21T01:03:07.581Z,6.9
2018-11-21T01:04:08.714Z,6.5
2018-11-21T01:05:13.887Z,6.5
2018-11-21T01:06:24.517Z,6.6
2018-11-21T01:07:25.746Z,6.8
2018-11-21T01:08:26.924Z,6.9
2018-11-21T01:09:28.275Z,6.8
2018-11-21T01:10:30.435Z,6.7
2018-11-21T01:11:31.851Z,6.8
2018-11-21T01:12:38.019Z,6.7
2018-11-21T01:13:39.524Z,6.7
2018-11-21T01:14:40.660Z,6.5
2018-11-21T01:15:41.801Z,6.6
2018-11-21T01:16:42.937Z,6.5
2018-11-21T01:17:44.139Z,6.6
2018-11-21T01:18:45.281Z,6.7
2018-11-21T01:19:46.476Z,6.6
2018-11-21T01:20:47.709Z,6.6
2018-11-21T01:21:48.875Z,6.6
2018-11-21T01:22:50.051Z,6.4
2018-11-21T01:23:51.210Z,6.3
2018-11-21T01:24:52.350Z,6.6
2018-11-21T01:25:53.491Z,6.6
2018-11-21T01:26:54.659Z,6.8
2018-11-21T01:27:55.825Z,6.9
2018-11-21T01:28:56.974Z,6.8
2018-11-21T01:29:58.103Z,6.6
2018-11-21T01:31:02.510Z,6.5
2018-11-21T01:32:08.626Z,6.6
2018-11-21T01:33:09.904Z,6.5
2018-11-21T01:34:10.954Z,6.4
2018-11-21T01:35:12.127Z,6.3
2018-11-21T01:36:13.271Z,6.5
2018-11-21T01:37:14.568Z,6.4
2018-11-21T01:38:21.807Z,6.4
2018-11-21T01:39:22.955Z,6.5
2018-11-21T01:40:24.086Z,6.4
2018-11-21T01:41:25.267Z,6.4
2018-11-21T01:42:34.517Z,6.5
2018-11-21T01:43:35.887Z,6.4
2018-11-21T01:44:39.535Z,6.2
2018-11-21T01:45:40.722Z,6.4
2018-11-21T01:46:41.939Z,6.4
2018-11-21T01:47:43.084Z,6.5
2018-11-21T01:48:44.268Z,6.4
2018-11-21T01:49:45.415Z,6.5
2018-11-21T01:50:46.569Z,6.3
2018-11-21T01:51:47.729Z,6.3
2018-11-21T01:52:48.869Z,6.3
2018-11-21T01:53:52.581Z,6.4
2018-11-21T01:54:53.852Z,6.4
2018-11-21T01:55:55.002Z,6.4
2018-11-21T01:57:06.229Z,6.4
2018-11-21T01:58:07.378Z,6.3
2018-11-21T01:59:08.595Z,6.5
2018-11-21T02:00:09.763Z,6.2
2018-11-21T02:01:13.309Z,6.2
2018-11-21T02:02:17.514Z,6.4
2018-11-21T02:03:21.720Z,6.2
2018-11-21T02:04:22.894Z,6.2
2018-11-21T02:05:24.027Z,6.2
2018-11-21T02:06:25.155Z,6.4
2018-11-21T02:07:26.294Z,6.4
2018-11-21T02:08:27.430Z,6.5
2018-11-21T02:09:28.610Z,6.5
2018-11-21T02:10:29.732Z,6.5
2018-11-21T02:11:30.870Z,6.3
2018-11-21T02:12:32.038Z,6.3
2018-11-21T02:13:33.195Z,6.5
2018-11-21T02:14:34.371Z,6.6
2018-11-21T02:15:35.516Z,6.6
2018-11-21T02:16:36.651Z,6.4
2018-11-21T02:17:41.267Z,6.5
2018-11-21T02:18:42.443Z,6.3
2018-11-21T02:19:43.600Z,6.3
2018-11-21T02:20:47.372Z,6.3
2018-11-21T02:21:48.500Z,6.5
2018-11-21T02:22:49.634Z,6.4
2018-11-21T02:23:50.764Z,6.6
2018-11-21T02:24:51.942Z,6.6
2018-11-21T02:25:53.053Z,6.6
2018-11-21T02:26:54.180Z,6.7
2018-11-21T02:27:55.533Z,6.8
2018-11-21T02:28:56.681Z,6.6
2018-11-21T02:29:57.909Z,6.5
2018-11-21T02:30:59.528Z,6.6
2018-11-21T02:32:07.290Z,6.4
2018-11-21T02:33:08.704Z,6.5
2018-11-21T02:34:09.869Z,6.4
2018-11-21T02:35:11.069Z,6.5
2018-11-21T02:36:12.187Z,6.4
2018-11-21T02:37:17.464Z,6.6
2018-11-21T02:38:18.730Z,6.6
2018-11-21T02:39:19.890Z,6.3
2018-11-21T02:40:21.212Z,6.4
2018-11-21T02:41:22.523Z,6.5
2018-11-21T02:42:23.742Z,6.6
2018-11-21T02:43:25.222Z,6.7
2018-11-21T02:44:26.550Z,6.7
2018-11-21T02:45:27.819Z,6.5
2018-11-21T02:46:28.973Z,6.4
2018-11-21T02:47:30.213Z,6.2
2018-11-21T02:48:32.035Z,6.3
2018-11-21T02:49:33.339Z,6.4
2018-11-21T02:50:34.576Z,6.2
2018-11-21T02:51:35.762Z,6.4
2018-11-21T02:52:36.948Z,6.6
2018-11-21T02:53:38.142Z,6.4
2018-11-21T02:54:39.487Z,6.3
2018-11-21T02:55:40.794Z,6.4
2018-11-21T02:56:41.940Z,6.4
2018-11-21T02:57:43.554Z,6.2
2018-11-21T02:58:44.714Z,6.2
2018-11-21T02:59:46.392Z,6.2
2018-11-21T03:00:47.593Z,6.1
2018-11-21T03:01:52.983Z,6.2
2018-11-21T03:02:54.232Z,6.4
2018-11-21T03:03:58.129Z,6.4
2018-11-21T03:04:59.238Z,6.2
2018-11-21T03:06:00.428Z,6
2018-11-21T03:07:07.648Z,6.1
2018-11-21T03:08:09.270Z,6.4
2018-11-21T03:09:10.462Z,6.3
2018-11-21T03:10:11.655Z,6.7
2018-11-21T03:11:12.848Z,6.8
2018-11-21T03:12:14.001Z,6.6
2018-11-21T03:13:15.174Z,6.3
2018-11-21T03:14:16.325Z,6.4
2018-11-21T03:15:17.450Z,6.5
2018-11-21T03:16:18.628Z,6.4
2018-11-21T03:17:19.792Z,6.4
2018-11-21T03:18:21.231Z,6.5
2018-11-21T03:19:22.569Z,6.5
2018-11-21T03:20:23.724Z,6.4
2018-11-21T03:21:25.083Z,6.5
2018-11-21T03:22:26.248Z,6.2
2018-11-21T03:23:27.569Z,6.3
2018-11-21T03:24:28.875Z,6.4
2018-11-21T03:25:30.047Z,6.7
2018-11-21T03:26:31.240Z,6.6
2018-11-21T03:27:39.281Z,6.5
2018-11-21T03:28:40.635Z,6.3
2018-11-21T03:29:41.923Z,6.2
2018-11-21T03:30:43.050Z,6.2
2018-11-21T03:31:47.267Z,6.4
2018-11-21T03:32:48.451Z,6.3
2018-11-21T03:33:57.544Z,6.3
2018-11-21T03:34:52.042Z,6.3
2018-11-21T03:35:53.202Z,6.2
2018-11-21T03:36:55.488Z,6.4
2018-11-21T03:37:56.744Z,6.5
2018-11-21T03:38:57.947Z,6.4
2018-11-21T03:39:59.130Z,6.4
2018-11-21T03:41:00.282Z,6.6
2018-11-21T03:42:01.482Z,6.4
2018-11-21T03:43:02.627Z,6.4
2018-11-21T03:44:04.386Z,6.4
2018-11-21T03:45:05.522Z,6.3
2018-11-21T03:46:06.813Z,6.4
2018-11-21T03:47:08.172Z,6.5
2018-11-21T03:48:09.318Z,6.5
2018-11-21T03:49:10.458Z,6.3
2018-11-21T03:50:11.595Z,6.3
2018-11-21T03:51:12.725Z,6.2
2018-11-21T03:52:13.925Z,5.9
2018-11-21T03:53:15.087Z,6.3
2018-11-21T03:54:23.739Z,6.2
2018-11-21T03:55:24.883Z,6.4
2018-11-21T03:56:26.033Z,6.2
2018-11-21T03:57:27.203Z,6.3
2018-11-21T03:58:47.132Z,6.2
2018-11-21T03:59:48.279Z,6.5
2018-11-21T04:00:49.468Z,6.3
2018-11-21T04:01:50.730Z,6.2
2018-11-21T04:02:51.905Z,6.2
2018-11-21T04:03:53.037Z,6.3
2018-11-21T04:04:54.153Z,6.4
2018-11-21T04:05:55.325Z,6.1
2018-11-21T04:06:56.490Z,6
2018-11-21T04:08:01.132Z,6.1
2018-11-21T04:09:02.453Z,6.1
2018-11-21T04:10:03.594Z,6.1
2018-11-21T04:11:04.740Z,6.3
2018-11-21T04:12:06.881Z,6.6
2018-11-21T04:13:08.051Z,7.4
2018-11-21T04:14:09.180Z,8.9
2018-11-21T04:15:10.324Z,9.7
2018-11-21T04:16:11.468Z,10.2
2018-11-21T04:17:12.636Z,10.4
2018-11-21T04:18:13.822Z,10.4
2018-11-21T04:19:14.951Z,10.6
2018-11-21T04:20:16.110Z,10.7
2018-11-21T04:21:17.276Z,10.9
2018-11-21T04:22:20.732Z,11
2018-11-21T04:23:21.953Z,10.9
2018-11-21T04:24:23.199Z,11.1
2018-11-21T04:25:24.316Z,10.9
2018-11-21T04:26:25.458Z,10.7
2018-11-21T04:27:27.920Z,10.9
2018-11-21T04:28:29.141Z,11
2018-11-21T04:29:30.520Z,10.8
2018-11-21T04:30:31.821Z,10.9
2018-11-21T04:31:32.965Z,11
2018-11-21T04:32:34.139Z,11.3
2018-11-21T04:33:35.317Z,11.3
2018-11-21T04:34:36.466Z,11.5
2018-11-21T04:35:37.610Z,11.4
2018-11-21T04:36:38.763Z,11.6
2018-11-21T04:37:42.408Z,11.6
2018-11-21T04:38:43.596Z,11.4
2018-11-21T04:39:44.731Z,11.7
2018-11-21T04:40:45.891Z,11.7
2018-11-21T04:41:47.089Z,11.9
2018-11-21T04:42:48.266Z,11.8
2018-11-21T04:43:49.453Z,11.9
2018-11-21T04:44:50.614Z,12.1
2018-11-21T04:45:51.755Z,11.9
2018-11-21T04:46:52.904Z,11.6
2018-11-21T04:47:56.782Z,11.3
2018-11-21T04:48:57.990Z,11.3
2018-11-21T04:49:59.121Z,11.1
2018-11-21T04:51:00.269Z,10.9
2018-11-21T04:52:02.044Z,10.6
2018-11-21T04:53:03.254Z,10.2
2018-11-21T04:54:04.456Z,10.1
2018-11-21T04:55:05.637Z,10
2018-11-21T04:56:06.782Z,9.9
2018-11-21T04:57:07.933Z,9.9
2018-11-21T04:58:09.086Z,9.9
2018-11-21T04:59:10.290Z,10
2018-11-21T05:00:11.406Z,10
2018-11-21T05:01:12.558Z,10
2018-11-21T05:02:13.705Z,10
2018-11-21T05:03:14.853Z,10
2018-11-21T05:04:16.025Z,10.1
2018-11-21T05:05:17.239Z,10.1
2018-11-21T05:06:19.181Z,10.2
2018-11-21T05:07:23.305Z,10.3
2018-11-21T05:08:24.433Z,10.5
2018-11-21T05:09:27.006Z,10.5
2018-11-21T05:10:28.168Z,10.5
2018-11-21T05:11:29.314Z,10.6
2018-11-21T05:12:30.447Z,10.6
2018-11-21T05:13:31.597Z,10.5
2018-11-21T05:14:32.823Z,10.5
2018-11-21T05:15:33.973Z,10.4
2018-11-21T05:16:35.130Z,10.3
2018-11-21T05:17:36.260Z,10.4
2018-11-21T05:18:37.412Z,10.4
2018-11-21T05:19:38.630Z,10.5
2018-11-21T05:20:39.817Z,10.6
2018-11-21T05:21:41.131Z,10.5
2018-11-21T05:22:42.369Z,10.5
2018-11-21T05:23:45.196Z,10.4
2018-11-21T05:24:46.641Z,10.5
2018-11-21T05:25:47.781Z,10.4
2018-11-21T05:26:48.986Z,10.4
2018-11-21T05:27:50.164Z,10.4
2018-11-21T05:28:51.328Z,10.3
2018-11-21T05:29:52.574Z,10.2
2018-11-21T05:30:53.801Z,10.3
2018-11-21T05:31:54.941Z,10.2
2018-11-21T05:32:56.092Z,10.2
2018-11-21T05:33:57.323Z,10.3
2018-11-21T05:34:58.650Z,10.4
2018-11-21T05:36:00.153Z,10.2
2018-11-21T05:37:07.100Z,10.3
2018-11-21T05:38:09.317Z,10.4
2018-11-21T05:39:10.446Z,10.2
2018-11-21T05:40:11.621Z,10.3
2018-11-21T05:41:12.750Z,10.3
2018-11-21T05:42:13.906Z,10.3
2018-11-21T05:43:15.528Z,10.2
2018-11-21T05:44:24.668Z,10.2
2018-11-21T05:45:25.638Z,10.1
2018-11-21T05:46:29.303Z,10.1
2018-11-21T05:47:30.499Z,10.2
2018-11-21T05:48:31.630Z,10.2
2018-11-21T05:49:32.798Z,10.2
2018-11-21T05:50:37.189Z,10.1
2018-11-21T05:51:38.402Z,10
2018-11-21T05:52:39.564Z,10.2
2018-11-21T05:53:40.690Z,10.2
2018-11-21T05:54:41.893Z,10.2
2018-11-21T05:55:43.065Z,10.3
2018-11-21T05:56:44.621Z,10.3
2018-11-21T05:57:45.907Z,10.4
2018-11-21T05:58:47.067Z,10.3
2018-11-21T05:59:48.227Z,10.3
2018-11-21T06:00:49.580Z,10.2
2018-11-21T06:01:50.749Z,10.3
2018-11-21T06:02:51.910Z,10.3
2018-11-21T06:03:53.111Z,10
2018-11-21T06:04:54.301Z,10
2018-11-21T06:05:56.726Z,10
2018-11-21T06:06:57.899Z,10
2018-11-21T06:08:01.530Z,10.1
2018-11-21T06:09:06.668Z,10.1
2018-11-21T06:10:07.826Z,9.9
2018-11-21T06:11:09.194Z,9.9
2018-11-21T06:12:10.381Z,10
2018-11-21T06:13:11.569Z,10
2018-11-21T06:14:12.717Z,10
2018-11-21T06:15:13.900Z,10.1
2018-11-21T06:16:15.279Z,10.2
2018-11-21T06:17:16.431Z,10.1
2018-11-21T06:18:17.599Z,10.1
2018-11-21T06:19:18.749Z,9.8
2018-11-21T06:20:19.931Z,9.8
2018-11-21T06:21:23.308Z,10
2018-11-21T06:22:24.670Z,10
2018-11-21T06:23:27.965Z,9.9
2018-11-21T06:24:31.331Z,9.9
2018-11-21T06:25:32.507Z,9.9
2018-11-21T06:26:33.781Z,9.9
2018-11-21T06:27:34.952Z,9.9
2018-11-21T06:28:36.110Z,10
2018-11-21T06:29:37.326Z,10.1
2018-11-21T06:30:38.496Z,9.9
2018-11-21T06:31:39.747Z,10.1
2018-11-21T06:32:41.201Z,10.1
2018-11-21T06:33:42.350Z,10.1
2018-11-21T06:34:43.505Z,10.2
2018-11-21T06:35:44.688Z,10.1
2018-11-21T06:36:46.024Z,10.1
2018-11-21T06:37:47.230Z,10
2018-11-21T06:38:48.382Z,9.9
2018-11-21T06:39:52.279Z,10
2018-11-21T06:40:53.484Z,9.8
2018-11-21T06:41:54.906Z,9.8
2018-11-21T06:42:56.109Z,9.9
2018-11-21T06:43:57.350Z,9.8
2018-11-21T06:44:58.901Z,9.8
2018-11-21T06:46:01.103Z,9.8
2018-11-21T06:47:02.453Z,9.7
2018-11-21T06:48:03.805Z,9.6
2018-11-21T06:49:04.989Z,9.7
2018-11-21T06:50:06.166Z,9.8
2018-11-21T06:51:07.339Z,9.7
2018-11-21T06:52:08.518Z,9.7
2018-11-21T06:53:09.683Z,9.7
2018-11-21T06:54:10.880Z,9.7
2018-11-21T06:55:12.055Z,9.6
2018-11-21T06:56:13.226Z,9.7
2018-11-21T06:57:14.414Z,9.8
2018-11-21T06:58:15.652Z,9.6
2018-11-21T06:59:18.098Z,9.7
2018-11-21T07:00:19.332Z,9.6
2018-11-21T07:01:20.506Z,9.8
2018-11-21T07:02:21.721Z,9.7
2018-11-21T07:03:22.867Z,9.6
2018-11-21T07:04:24.090Z,9.8
2018-11-21T07:05:25.294Z,9.7
2018-11-21T07:06:26.437Z,9.6
2018-11-21T07:07:27.686Z,9.6
2018-11-21T07:08:28.878Z,9.7
2018-11-21T07:09:30.239Z,9.6
2018-11-21T07:10:31.397Z,9.6
2018-11-21T07:11:32.614Z,9.6
2018-11-21T07:12:33.859Z,9.4
2018-11-21T07:13:35.455Z,9.6
2018-11-21T07:14:36.653Z,9.6
2018-11-21T07:15:40.924Z,9.5
2018-11-21T07:16:42.237Z,9.6
2018-11-21T07:17:43.418Z,9.6
2018-11-21T07:18:50.704Z,9.6
2018-11-21T07:19:51.915Z,9.7
2018-11-21T07:20:53.097Z,9.6
2018-11-21T07:21:54.268Z,9.7
2018-11-21T07:22:55.734Z,9.6
2018-11-21T07:23:57.146Z,9.7
2018-11-21T07:25:00.473Z,9.6
2018-11-21T07:26:01.773Z,9.7
2018-11-21T07:27:03.365Z,9.6
2018-11-21T07:28:04.594Z,9.6
2018-11-21T07:29:08.593Z,9.6
2018-11-21T07:30:09.817Z,9.7
2018-11-21T07:31:11.307Z,9.6
2018-11-21T07:32:12.477Z,9.6
2018-11-21T07:33:15.863Z,9.6
2018-11-21T07:34:17.197Z,9.6
2018-11-21T07:35:18.387Z,9.6
2018-11-21T07:36:19.602Z,9.5
2018-11-21T07:37:22.738Z,9.5
2018-11-21T07:38:25.288Z,9.5
2018-11-21T07:39:26.528Z,9.5
2018-11-21T07:40:28.337Z,9.5
2018-11-21T07:41:29.544Z,9.5
2018-11-21T07:42:30.872Z,9.4
2018-11-21T07:43:32.082Z,9.5
2018-11-21T07:44:33.258Z,9.6
2018-11-21T07:45:35.117Z,9.6
2018-11-21T07:46:36.317Z,9.4
2018-11-21T07:47:40.298Z,9.7
2018-11-21T07:48:44.525Z,9.7
2018-11-21T07:49:47.733Z,9.7
2018-11-21T07:50:48.866Z,9.7
2018-11-21T07:51:50.280Z,9.8
2018-11-21T07:52:51.473Z,9.8
2018-11-21T07:53:53.745Z,9.7
2018-11-21T07:54:54.926Z,9.8
2018-11-21T07:55:56.089Z,9.8
2018-11-21T07:56:57.264Z,9.9
2018-11-21T07:57:58.497Z,9.9
2018-11-21T07:58:59.695Z,9.9
2018-11-21T08:00:04.123Z,9.9
2018-11-21T08:01:05.327Z,9.9
2018-11-21T08:02:06.527Z,9.9
2018-11-21T08:03:10.263Z,9.9
2018-11-21T08:04:14.548Z,9.8
2018-11-21T08:05:15.700Z,9.8
2018-11-21T08:06:16.874Z,9.7
2018-11-21T08:07:18.094Z,9.7
2018-11-21T08:08:21.731Z,9.7
2018-11-21T08:09:22.946Z,9.8
2018-11-21T08:10:26.330Z,9.7
2018-11-21T08:11:27.512Z,9.9
2018-11-21T08:12:28.697Z,9.9
2018-11-21T08:13:30.075Z,9.9
2018-11-21T08:14:34.577Z,9.9
2018-11-21T08:15:42.779Z,9.8
2018-11-21T08:16:45.031Z,9.8
2018-11-21T08:17:48.728Z,9.8
2018-11-21T08:18:49.962Z,9.9
2018-11-21T08:19:51.170Z,9.9
2018-11-21T08:20:52.364Z,9.9
2018-11-21T08:21:53.543Z,9.8
2018-11-21T08:22:55.092Z,9.8
2018-11-21T08:23:56.288Z,9.8
2018-11-21T08:25:02.682Z,9.9
2018-11-21T08:26:03.866Z,9.9
2018-11-21T08:27:05.059Z,9.8
2018-11-21T08:28:06.197Z,9.8
2018-11-21T08:29:07.379Z,9.8
2018-11-21T08:30:08.591Z,9.9
2018-11-21T08:31:11.414Z,9.8
2018-11-21T08:32:12.851Z,9.8
2018-11-21T08:33:14.092Z,9.8
2018-11-21T08:34:15.274Z,9.9
2018-11-21T08:35:17.537Z,9.7
2018-11-21T08:36:21.220Z,9.7
2018-11-21T08:37:22.626Z,9.6
2018-11-21T08:38:26.351Z,9.7
2018-11-21T08:39:27.489Z,9.8
2018-11-21T08:40:28.714Z,9.8
2018-11-21T08:41:29.908Z,9.8
2018-11-21T08:42:31.051Z,9.7
2018-11-21T08:43:32.260Z,9.7
2018-11-21T08:44:36.900Z,9.8
2018-11-21T08:45:38.180Z,9.8
2018-11-21T08:46:39.385Z,9.8
2018-11-21T08:47:40.588Z,9.8
2018-11-21T08:48:41.761Z,9.8
2018-11-21T08:49:42.926Z,9.9
2018-11-21T08:50:44.163Z,10
2018-11-21T08:51:45.666Z,10
2018-11-21T08:52:46.864Z,9.8
2018-11-21T08:53:48.081Z,9.9
2018-11-21T08:54:49.355Z,10
2018-11-21T08:55:50.553Z,9.9
2018-11-21T08:56:55.244Z,9.8
2018-11-21T08:58:00.101Z,9.7
2018-11-21T08:59:01.327Z,9.8
2018-11-21T09:00:05.348Z,9.8
2018-11-21T09:01:06.691Z,9.8
2018-11-21T09:02:07.882Z,9.8
2018-11-21T09:03:09.089Z,9.8
2018-11-21T09:04:11.648Z,9.8
2018-11-21T09:05:12.874Z,9.8
2018-11-21T09:06:20.404Z,9.8
2018-11-21T09:07:22.877Z,9.8
2018-11-21T09:08:24.229Z,9.7
2018-11-21T09:09:38.342Z,9.6
2018-11-21T09:10:41.217Z,9.7
2018-11-21T09:11:42.494Z,9.7
2018-11-21T09:12:44.534Z,9.8
2018-11-21T09:13:45.706Z,9.8
2018-11-21T09:14:47.205Z,9.8
2018-11-21T09:15:51.196Z,9.9
2018-11-21T09:16:52.451Z,10
2018-11-21T09:17:53.628Z,10.1
2018-11-21T09:18:54.842Z,10.1
2018-11-21T09:19:56.026Z,9.9
2018-11-21T09:20:57.327Z,9.9
2018-11-21T09:21:59.205Z,10
2018-11-21T09:23:02.367Z,10.1
2018-11-21T09:24:03.567Z,10.1
2018-11-21T09:25:07.083Z,10
2018-11-21T09:26:08.282Z,10
2018-11-21T09:28:16.649Z,10.1
2018-11-21T09:29:20.068Z,10
2018-11-21T09:30:21.548Z,9.9
2018-11-21T09:31:22.715Z,10
2018-11-21T09:32:26.736Z,10
2018-11-21T09:33:33.076Z,10.1
2018-11-21T09:34:34.303Z,10.1
2018-11-21T09:35:36.629Z,10
2018-11-21T09:36:37.900Z,9.9
2018-11-21T09:37:44.643Z,10
2018-11-21T09:38:48.911Z,10
2018-11-21T09:39:50.858Z,10.1
2018-11-21T09:40:52.038Z,10
2018-11-21T09:41:53.201Z,10
2018-11-21T09:44:18.881Z,10
2018-11-21T09:45:20.179Z,9.8
2018-11-21T09:46:24.784Z,9.9
2018-11-21T09:47:27.426Z,10.1
2018-11-21T09:48:35.828Z,10.1
2018-11-21T09:49:36.992Z,10.1
2018-11-21T09:50:38.174Z,10.1
2018-11-21T09:51:43.444Z,10.1
2018-11-21T09:52:50.174Z,10.1
2018-11-21T09:53:46.377Z,9.9
2018-11-21T09:54:48.032Z,10
2018-11-21T09:55:49.172Z,10
2018-11-21T09:56:50.396Z,10
2018-11-21T09:57:51.605Z,10.1
2018-11-21T09:58:52.823Z,10.2
2018-11-21T09:59:53.988Z,10.2
2018-11-21T10:00:55.179Z,10.1
2018-11-21T10:01:59.484Z,10.1
2018-11-21T10:03:06.589Z,10.1
2018-11-21T10:04:08.161Z,10
2018-11-21T10:05:09.428Z,10
2018-11-21T10:06:10.574Z,10.1
2018-11-21T10:07:14.371Z,10
2018-11-21T10:08:15.602Z,10
2018-11-21T10:09:18.358Z,10.1
2018-11-21T10:10:20.673Z,10
2018-11-21T10:11:21.857Z,10.1
2018-11-21T10:12:23.062Z,10
2018-11-21T10:13:24.301Z,9.9
2018-11-21T10:14:25.559Z,9.8
2018-11-21T10:15:26.741Z,9.9
2018-11-21T10:16:30.385Z,10.1
2018-11-21T10:17:31.647Z,10
2018-11-21T10:18:32.784Z,10
2018-11-21T10:19:34.806Z,10.1
2018-11-21T10:20:39.673Z,10.2
2018-11-21T10:21:46.785Z,10.1
2018-11-21T10:22:47.969Z,9.9
2018-11-21T10:23:49.296Z,10
2018-11-21T10:24:50.898Z,9.9
2018-11-21T10:25:54.305Z,10.1
2018-11-21T10:26:56.515Z,10.1
2018-11-21T10:28:01.139Z,10
2018-11-21T10:29:02.402Z,9.9
2018-11-21T10:30:03.643Z,9.9
2018-11-21T10:31:04.873Z,9.8
2018-11-21T10:32:06.080Z,9.9
2018-11-21T10:33:09.713Z,10
2018-11-21T10:34:16.127Z,10
2018-11-21T10:35:17.375Z,10.1
2018-11-21T10:36:19.909Z,10
2018-11-21T10:37:21.104Z,10
2018-11-21T10:38:22.286Z,9.9
2018-11-21T10:39:23.678Z,9.9
2018-11-21T10:40:24.939Z,10
2018-11-21T10:41:28.594Z,10.1
2018-11-21T10:42:32.227Z,10.1
2018-11-21T10:43:33.466Z,10
2018-11-21T10:44:34.687Z,10
2018-11-21T10:45:36.657Z,10
2018-11-21T10:46:40.554Z,10.1
2018-11-21T10:47:43.795Z,10.1
2018-11-21T10:48:45.027Z,10.1
2018-11-21T10:49:46.222Z,10
2018-11-21T10:50:47.449Z,10
2018-11-21T10:51:48.945Z,10
2018-11-21T10:52:50.151Z,10
2018-11-21T10:53:51.338Z,10
2018-11-21T10:54:52.617Z,10
2018-11-21T10:55:56.350Z,10
2018-11-21T10:57:00.849Z,10
2018-11-21T10:58:02.151Z,10
2018-11-21T10:59:03.357Z,10
2018-11-21T11:00:05.723Z,10
2018-11-21T11:01:09.384Z,10
2018-11-21T11:02:10.761Z,9.9
2018-11-21T11:03:11.975Z,9.9
2018-11-21T11:04:13.207Z,10.1
2018-11-21T11:05:22.071Z,10.1
2018-11-21T11:06:24.128Z,10
2018-11-21T11:07:31.148Z,9.9
2018-11-21T11:08:35.410Z,9.7
2018-11-21T11:09:38.327Z,9.9
2018-11-21T11:10:39.575Z,10
2018-11-21T11:11:43.090Z,10.1
2018-11-21T11:12:44.289Z,10.1
2018-11-21T11:13:45.653Z,10.1
2018-11-21T11:14:49.259Z,10
2018-11-21T11:15:50.638Z,9.9
2018-11-21T11:16:51.836Z,10
2018-11-21T11:17:53.266Z,9.9
2018-11-21T11:18:54.545Z,10
2018-11-21T11:19:55.772Z,10
2018-11-21T11:20:56.951Z,10.1
2018-11-21T11:22:00.674Z,10.2
2018-11-21T11:23:06.221Z,10.2
2018-11-21T11:24:09.692Z,10.2
2018-11-21T11:25:10.927Z,10.1
2018-11-21T11:26:12.199Z,10.1
2018-11-21T11:27:19.632Z,10.1
2018-11-21T11:28:20.865Z,10.1
2018-11-21T11:29:23.567Z,10.1
2018-11-21T11:30:27.167Z,10.1
2018-11-21T11:31:28.364Z,10
2018-11-21T11:32:36.037Z,10
2018-11-21T11:33:37.263Z,10
2018-11-21T11:34:41.648Z,10
2018-11-21T11:35:42.835Z,10
2018-11-21T11:36:44.805Z,10.1
2018-11-21T11:37:47.193Z,9.8
2018-11-21T11:38:49.783Z,10
2018-11-21T11:39:58.286Z,10
2018-11-21T11:40:59.564Z,10
2018-11-21T11:42:03.158Z,10
2018-11-21T11:43:04.681Z,9.9
2018-11-21T11:44:10.654Z,9.9
2018-11-21T11:45:14.435Z,10
2018-11-21T11:46:16.570Z,10
2018-11-21T11:47:25.121Z,10
2018-11-21T11:48:26.315Z,10
2018-11-21T11:49:27.511Z,10
2018-11-21T11:50:31.647Z,10
2018-11-21T11:51:35.253Z,10.1
2018-11-21T11:52:39.165Z,10.1
2018-11-21T11:53:42.823Z,10.1
2018-11-21T11:54:44.583Z,10
2018-11-21T11:55:45.750Z,9.8
2018-11-21T11:56:47.148Z,9.9
2018-11-21T11:57:50.059Z,9.9
2018-11-21T11:58:53.834Z,10.1
2018-11-21T11:59:57.684Z,10
2018-11-21T12:00:58.880Z,10
2018-11-21T12:02:11.029Z,9.9
2018-11-21T12:03:11.601Z,10
2018-11-21T12:04:13.296Z,9.9
2018-11-21T12:05:14.559Z,10
2018-11-21T12:06:15.780Z,10
2018-11-21T12:07:19.995Z,10
2018-11-21T12:08:21.222Z,9.9
2018-11-21T12:09:24.414Z,10
2018-11-21T12:10:25.833Z,10.1
2018-11-21T12:11:29.936Z,10.1
2018-11-21T12:12:41.439Z,10
2018-11-21T12:13:42.695Z,9.9
2018-11-21T12:14:46.685Z,10
2018-11-21T12:15:48.085Z,10
2018-11-21T12:16:49.302Z,9.7
2018-11-21T12:18:00.638Z,10
2018-11-21T12:19:01.866Z,10.2
2018-11-21T12:20:03.345Z,10.1
2018-11-21T12:21:04.576Z,10.1
2018-11-21T12:22:08.309Z,10.1
2018-11-21T12:23:09.596Z,10.1
2018-11-21T12:24:15.375Z,10.1
2018-11-21T12:25:19.003Z,10
2018-11-21T12:26:22.323Z,10
2018-11-21T12:27:29.684Z,10
2018-11-21T12:28:35.723Z,9.9
2018-11-21T12:29:37.139Z,10
2018-11-21T12:30:38.390Z,10
2018-11-21T12:31:39.538Z,10
2018-11-21T12:32:40.771Z,10
2018-11-21T12:33:43.330Z,10
2018-11-21T12:34:44.589Z,9.9
2018-11-21T12:35:48.291Z,10
2018-11-21T12:36:49.462Z,10
2018-11-21T12:37:50.659Z,10
2018-11-21T12:38:54.824Z,9.9
2018-11-21T12:40:03.125Z,10
2018-11-21T12:41:04.336Z,9.9
2018-11-21T12:42:06.124Z,9.9
2018-11-21T12:43:13.196Z,9.9
2018-11-21T12:44:12.104Z,9.9
2018-11-21T12:45:13.416Z,9.9
2018-11-21T12:46:14.636Z,9.9
2018-11-21T12:47:19.592Z,9.8
2018-11-21T12:48:21.942Z,9.9
2018-11-21T12:49:25.582Z,9.9
2018-11-21T12:50:29.536Z,9.8
2018-11-21T12:51:30.958Z,9.8
2018-11-21T12:52:32.393Z,9.9
2018-11-21T12:53:35.241Z,9.8
2018-11-21T12:54:36.490Z,9.7
2018-11-21T12:55:41.172Z,9.9
2018-11-21T12:56:42.422Z,9.9
2018-11-21T12:57:46.075Z,9.8
2018-11-21T12:58:47.304Z,9.8
2018-11-21T12:59:49.650Z,9.9
2018-11-21T13:00:58.160Z,9.9
2018-11-21T13:02:08.674Z,9.9
2018-11-21T13:03:10.171Z,9.8
2018-11-21T13:04:14.286Z,9.8
2018-11-21T13:05:15.459Z,9.8
2018-11-21T13:06:16.627Z,9.8
2018-11-21T13:07:17.849Z,9.8
2018-11-21T13:08:23.342Z,9.9
2018-11-21T13:09:24.619Z,9.8
2018-11-21T13:10:28.082Z,9.8
2018-11-21T13:11:30.077Z,9.8
2018-11-21T13:12:31.333Z,9.9
2018-11-21T13:13:32.557Z,9.8
2018-11-21T13:14:33.813Z,9.6
2018-11-21T13:15:36.867Z,9.7
2018-11-21T13:16:39.330Z,9.9
2018-11-21T13:17:42.113Z,9.9
2018-11-21T13:18:46.025Z,9.8
2018-11-21T13:19:49.676Z,9.8
2018-11-21T13:20:50.834Z,9.9
2018-11-21T13:21:52.060Z,9.7
2018-11-21T13:22:53.823Z,9.8
2018-11-21T13:23:57.600Z,9.8
2018-11-21T13:25:02.343Z,9.6
2018-11-21T13:26:03.814Z,9.8
2018-11-21T13:27:10.729Z,9.8
2018-11-21T13:28:11.985Z,9.8
2018-11-21T13:29:17.243Z,9.8
2018-11-21T13:30:14.458Z,9.8
2018-11-21T13:31:21.543Z,9.8
2018-11-21T13:32:28.359Z,9.7
2018-11-21T13:33:30.590Z,9.7
2018-11-21T13:34:31.822Z,9.7
2018-11-21T13:35:35.806Z,9.8
2018-11-21T13:36:36.981Z,9.7
2018-11-21T13:37:38.234Z,9.8
2018-11-21T13:38:39.593Z,9.8
2018-11-21T13:39:41.115Z,9.9
2018-11-21T13:40:42.342Z,9.8
2018-11-21T13:41:43.750Z,9.7
2018-11-21T13:42:45.171Z,9.8
2018-11-21T13:43:48.709Z,9.9
2018-11-21T13:44:55.182Z,9.8
2018-11-21T13:45:56.639Z,9.7
2018-11-21T13:46:57.842Z,9.9
2018-11-21T13:48:10.583Z,9.7
2018-11-21T13:49:11.814Z,9.8
2018-11-21T13:50:15.685Z,9.7
2018-11-21T13:51:19.215Z,9.7
2018-11-21T13:52:20.415Z,9.7
2018-11-21T13:53:23.145Z,9.8
2018-11-21T13:54:25.980Z,9.8
2018-11-21T13:55:28.032Z,9.8
2018-11-21T13:56:29.246Z,9.8
2018-11-21T13:57:33.650Z,9.8
2018-11-21T13:58:37.363Z,9.8
2018-11-21T13:59:38.629Z,9.8
2018-11-21T14:00:39.843Z,9.6
2018-11-21T14:01:41.387Z,9.6
2018-11-21T14:02:42.642Z,9.6
2018-11-21T14:03:43.810Z,9.6
2018-11-21T14:04:51.072Z,9.6
2018-11-21T14:05:54.489Z,9.8
2018-11-21T14:06:55.674Z,9.7
2018-11-21T14:07:57.862Z,9.7
2018-11-21T14:09:01.372Z,9.7
2018-11-21T14:10:04.561Z,9.5
2018-11-21T14:11:06.189Z,9.5
2018-11-21T14:12:08.083Z,9.6
2018-11-21T14:13:14.596Z,9.7
2018-11-21T14:14:15.928Z,9.7
2018-11-21T14:15:19.651Z,9.6
2018-11-21T14:16:23.679Z,9.6
2018-11-21T14:17:27.638Z,9.6